Time;durP1;ratioP1;P1;durP2;ratioP2;P2;SDS_P1;SDS_P2;PMS_P1;PMS_P2;Temp;Humidity;BMP_temperature;BMP_pressure;BME280_temperature;BME280_humidity;BME280_pressure;Samples;Min_cycle;Max_cycle;Signal;HPM_P1;HPM_P2
2022/04/15 00:01:49;;;;;;;1.73;0.60;;;7.80;99.90;;;;;;5048458;28;20198;-90
2022/04/15 00:04:15;;;;;;;1.07;1.00;;;7.70;99.90;;;;;;5048447;28;20236;-90
2022/04/15 00:06:41;;;;;;;0.63;0.63;;;7.80;99.90;;;;;;5065666;28;21034;-89
2022/04/15 00:09:07;;;;;;;0.83;0.63;;;7.70;99.90;;;;;;5048003;28;20269;-90
2022/04/15 00:11:32;;;;;;;2.33;1.33;;;7.70;99.90;;;;;;5065402;28;21140;-90
2022/04/15 00:14:00;;;;;;;5.90;0.97;;;7.80;99.90;;;;;;5056858;28;20233;-90
2022/04/15 00:16:26;;;;;;;5.40;1.97;;;7.80;99.90;;;;;;5047964;28;20217;-90
2022/04/15 00:18:52;;;;;;;4.53;0.60;;;7.90;99.90;;;;;;5082203;28;20316;-90
2022/04/15 00:21:17;;;;;;;1.40;0.60;;;8.00;99.90;;;;;;5081842;28;20304;-89
2022/04/15 00:23:44;;;;;;;0.87;0.60;;;8.10;99.90;;;;;;5048732;28;20236;-90
2022/04/15 00:26:10;;;;;;;0.87;0.80;;;8.20;99.90;;;;;;5066301;28;20220;-90
2022/04/15 00:28:35;;;;;;;2.13;1.00;;;8.30;99.90;;;;;;5048287;28;20237;-89
2022/04/15 00:31:01;;;;;;;2.03;1.70;;;8.40;99.90;;;;;;5082033;28;21019;-91
2022/04/15 00:33:27;;;;;;;1.77;0.73;;;8.50;99.90;;;;;;5057547;28;20225;-90
2022/04/15 00:35:53;;;;;;;0.70;0.70;;;8.50;99.90;;;;;;5065015;28;20877;-90
2022/04/15 00:38:18;;;;;;;1.63;1.53;;;8.60;99.90;;;;;;5047544;28;20645;-90
2022/04/15 00:40:44;;;;;;;7.27;1.23;;;8.60;99.90;;;;;;5048314;28;20568;-90
2022/04/15 00:43:10;;;;;;;0.33;0.33;;;8.60;99.90;;;;;;5048045;28;20213;-90
2022/04/15 00:45:36;;;;;;;0.70;0.70;;;8.70;99.90;;;;;;5065879;28;20315;-90
2022/04/15 00:48:02;;;;;;;1.03;0.47;;;8.70;99.90;;;;;;5081389;28;20221;-90
2022/04/15 00:50:32;;;;;;;0.60;0.60;;;8.70;99.90;;;;;;5081387;28;20189;-89
2022/04/15 00:53:00;;;;;;;0.83;0.80;;;8.70;99.90;;;;;;5048880;28;20179;-89
2022/04/15 00:55:27;;;;;;;0.40;0.40;;;8.70;99.90;;;;;;5063047;28;20228;-90
2022/04/15 00:58:03;;;;;;;0.73;0.70;;;8.80;99.90;;;;;;5044701;28;20604;-90
2022/04/15 01:00:31;;;;;;;3.97;1.60;;;8.80;99.90;;;;;;5047084;28;20232;-90
2022/04/15 01:02:59;;;;;;;0.90;0.77;;;8.80;99.90;;;;;;5047707;28;20228;-90
2022/04/15 01:05:25;;;;;;;2.83;0.60;;;8.80;99.90;;;;;;5064194;28;20268;-90
2022/04/15 01:07:55;;;;;;;1.10;1.10;;;8.80;99.90;;;;;;5048604;28;20216;-91
2022/04/15 01:10:21;;;;;;;0.57;0.30;;;8.80;99.90;;;;;;5064920;28;20216;-91
2022/04/15 01:12:56;;;;;;;4.30;1.00;;;8.80;99.90;;;;;;5065825;28;20685;-90
2022/04/15 01:15:25;;;;;;;0.90;0.90;;;8.80;99.90;;;;;;5065448;28;20224;-91
2022/04/15 01:17:51;;;;;;;3.23;1.97;;;8.80;99.90;;;;;;5081103;28;20213;-89
2022/04/15 01:20:16;;;;;;;0.43;0.43;;;8.80;99.90;;;;;;5064639;28;20191;-91
2022/04/15 01:22:47;;;;;;;1.07;1.00;;;8.80;99.90;;;;;;5065442;28;20326;-90
2022/04/15 01:25:15;;;;;;;0.83;0.83;;;8.80;99.90;;;;;;5065836;28;20269;-90
2022/04/15 01:27:46;;;;;;;0.70;0.60;;;8.90;99.90;;;;;;5065693;28;20221;-90
2022/04/15 01:30:15;;;;;;;4.33;1.43;;;8.90;99.90;;;;;;5063951;28;20213;-90
2022/04/15 01:32:41;;;;;;;1.57;0.80;;;8.90;99.90;;;;;;5064044;28;20224;-90
2022/04/15 01:35:08;;;;;;;0.50;0.50;;;8.90;99.90;;;;;;5048094;28;20208;-91
2022/04/15 01:37:36;;;;;;;0.70;0.70;;;8.90;99.90;;;;;;5047247;28;20210;-91
2022/04/15 01:40:03;;;;;;;0.87;0.80;;;8.90;99.90;;;;;;5065232;28;20266;-90
2022/04/15 01:42:29;;;;;;;0.77;0.77;;;8.90;99.90;;;;;;5041372;28;20697;-90
2022/04/15 01:44:55;;;;;;;0.70;0.70;;;9.00;99.90;;;;;;5038612;28;20232;-91
2022/04/15 01:47:20;;;;;;;0.57;0.57;;;9.00;99.90;;;;;;5064442;28;20192;-90
2022/04/15 01:49:46;;;;;;;5.47;1.30;;;9.00;99.90;;;;;;5065472;28;20197;-91
2022/04/15 01:52:12;;;;;;;4.63;1.33;;;8.90;99.90;;;;;;5068029;28;20209;-90
2022/04/15 01:54:37;;;;;;;1.83;1.73;;;9.00;99.90;;;;;;5067712;28;20225;-91
2022/04/15 01:57:04;;;;;;;2.73;2.53;;;9.00;99.90;;;;;;5050988;28;20217;-91
2022/04/15 01:59:29;;;;;;;7.13;1.13;;;9.00;99.90;;;;;;5050911;28;20284;-90
2022/04/15 02:01:55;;;;;;;1.23;1.13;;;9.00;99.90;;;;;;5085213;28;20202;-90
2022/04/15 02:04:22;;;;;;;1.50;1.40;;;9.00;99.90;;;;;;5050953;28;20252;-90
2022/04/15 02:06:48;;;;;;;1.33;1.00;;;9.00;99.90;;;;;;5067315;28;20212;-88
2022/04/15 02:09:14;;;;;;;2.63;1.60;;;9.00;99.90;;;;;;5050774;28;20269;-90
2022/04/15 02:11:40;;;;;;;1.53;1.00;;;9.00;99.90;;;;;;5067568;28;20271;-88
2022/04/15 02:14:06;;;;;;;0.90;0.90;;;9.00;99.90;;;;;;5068101;28;21156;-89
2022/04/15 02:16:33;;;;;;;3.20;1.73;;;9.00;99.90;;;;;;5067759;28;20719;-89
2022/04/15 02:18:58;;;;;;;1.63;1.10;;;9.00;99.90;;;;;;5050309;28;20229;-89
2022/04/15 02:21:24;;;;;;;1.10;1.00;;;9.00;99.90;;;;;;5067346;28;20296;-87
2022/04/15 02:23:50;;;;;;;1.63;1.37;;;9.00;99.90;;;;;;5067205;28;20221;-90
2022/04/15 02:26:16;;;;;;;3.53;1.80;;;9.00;99.90;;;;;;5042594;28;20189;-89
2022/04/15 02:28:41;;;;;;;3.23;1.50;;;9.00;99.90;;;;;;5068171;28;20291;-88
2022/04/15 02:31:07;;;;;;;4.03;1.67;;;9.00;99.90;;;;;;5067027;28;20232;-89
2022/04/15 02:33:33;;;;;;;2.90;2.57;;;9.00;99.90;;;;;;5067573;28;20248;-89
2022/04/15 02:35:59;;;;;;;3.37;2.17;;;9.00;99.90;;;;;;5066869;28;20220;-89
2022/04/15 02:38:24;;;;;;;1.13;1.03;;;8.90;99.90;;;;;;5066613;28;20656;-89
2022/04/15 02:40:50;;;;;;;2.90;1.47;;;8.90;99.90;;;;;;5067616;28;20782;-89
2022/04/15 02:43:16;;;;;;;3.10;0.90;;;8.90;99.90;;;;;;5084139;28;20308;-89
2022/04/15 02:45:43;;;;;;;3.53;1.40;;;8.90;99.90;;;;;;5050021;28;20723;-88
2022/04/15 02:48:09;;;;;;;4.10;1.90;;;8.90;99.90;;;;;;5068203;28;20221;-90
2022/04/15 02:50:34;;;;;;;2.00;1.60;;;9.00;99.90;;;;;;5066695;28;20736;-90
2022/04/15 02:53:01;;;;;;;2.43;2.23;;;9.00;99.90;;;;;;5050738;28;20610;-91
2022/04/15 02:55:27;;;;;;;2.63;1.13;;;9.00;99.90;;;;;;5066827;28;20232;-89
2022/04/15 02:57:53;;;;;;;3.27;1.53;;;9.00;99.90;;;;;;5049535;28;20225;-88
2022/04/15 03:00:20;;;;;;;0.83;0.37;;;9.00;99.90;;;;;;5082277;28;20224;-90
2022/04/15 03:02:45;;;;;;;0.30;0.30;;;8.80;99.90;;;;;;5064871;28;20223;-89
2022/04/15 03:05:12;;;;;;;0.83;0.83;;;8.80;99.90;;;;;;5084266;28;20213;-90
2022/04/15 03:07:38;;;;;;;0.67;0.67;;;8.90;99.90;;;;;;5066591;28;20239;-89
2022/04/15 03:10:06;;;;;;;0.57;0.57;;;8.90;99.90;;;;;;5067472;28;20232;-90
2022/04/15 03:12:38;;;;;;;0.77;0.77;;;8.90;99.90;;;;;;5066674;28;20376;-89
2022/04/15 03:15:06;;;;;;;1.60;1.10;;;9.00;99.90;;;;;;5040453;28;20236;-90
2022/04/15 03:17:33;;;;;;;1.30;1.10;;;9.00;99.90;;;;;;5066275;28;20276;-89
2022/04/15 03:20:02;;;;;;;3.00;1.90;;;9.10;99.90;;;;;;5066820;28;20197;-89
2022/04/15 03:22:29;;;;;;;0.70;0.70;;;9.00;99.90;;;;;;5049390;28;20228;-90
2022/04/15 03:24:55;;;;;;;1.97;1.33;;;9.00;99.90;;;;;;5066280;28;20237;-90
2022/04/15 03:27:21;;;;;;;1.67;1.57;;;9.00;99.90;;;;;;5048516;28;20574;-89
2022/04/15 03:29:46;;;;;;;1.93;1.83;;;9.00;99.90;;;;;;5065844;28;20275;-88
2022/04/15 03:32:12;;;;;;;5.33;2.13;;;9.00;99.90;;;;;;5049196;28;20189;-90
2022/04/15 03:34:38;;;;;;;2.23;1.80;;;9.10;99.90;;;;;;5066267;28;20228;-90
2022/04/15 03:37:04;;;;;;;2.70;2.37;;;9.00;99.90;;;;;;5065875;28;20220;-90
2022/04/15 03:39:31;;;;;;;2.10;1.00;;;8.90;99.90;;;;;;5065985;28;20543;-89
2022/04/15 03:41:56;;;;;;;2.10;1.90;;;8.90;99.90;;;;;;5048789;28;20225;-90
2022/04/15 03:44:22;;;;;;;2.50;2.27;;;9.00;99.90;;;;;;5065854;28;21003;-90
2022/04/15 03:46:48;;;;;;;5.53;3.03;;;9.10;99.90;;;;;;5067092;28;20633;-91
2022/04/15 03:49:14;;;;;;;2.77;2.50;;;9.00;99.90;;;;;;5067236;28;20267;-91
2022/04/15 03:51:39;;;;;;;3.70;2.97;;;9.10;99.90;;;;;;5065733;28;20712;-90
2022/04/15 03:54:05;;;;;;;2.47;2.37;;;9.00;99.90;;;;;;5049222;28;20298;-90
2022/04/15 03:56:32;;;;;;;5.73;4.00;;;9.00;99.90;;;;;;5065249;28;20641;-90
2022/04/15 03:58:58;;;;;;;5.43;3.70;;;9.00;99.90;;;;;;5049354;28;20202;-90
2022/04/15 04:01:24;;;;;;;9.03;4.47;;;9.00;99.90;;;;;;5048898;28;20233;-90
2022/04/15 04:03:51;;;;;;;7.30;2.40;;;9.00;99.90;;;;;;5048319;28;21149;-91
2022/04/15 04:06:17;;;;;;;4.80;3.63;;;9.00;99.90;;;;;;5062767;28;20336;-90
2022/04/15 04:08:49;;;;;;;5.03;3.03;;;9.00;99.90;;;;;;5063203;28;20213;-90
2022/04/15 04:11:16;;;;;;;6.03;3.00;;;9.00;99.90;;;;;;5063877;28;20197;-89
2022/04/15 04:13:42;;;;;;;4.10;3.13;;;8.90;99.90;;;;;;5048249;28;20248;-90
2022/04/15 04:16:08;;;;;;;6.43;3.67;;;8.80;99.90;;;;;;5081967;28;20249;-90
2022/04/15 04:18:34;;;;;;;5.17;3.40;;;8.80;99.90;;;;;;5065031;28;20263;-91
2022/04/15 04:21:00;;;;;;;4.13;2.33;;;8.80;99.90;;;;;;5064844;28;20224;-90
2022/04/15 04:23:26;;;;;;;2.53;2.33;;;8.70;99.90;;;;;;5064651;28;20274;-90
2022/04/15 04:25:51;;;;;;;9.90;3.07;;;8.70;99.90;;;;;;5065842;28;20192;-90
2022/04/15 04:28:17;;;;;;;7.10;2.57;;;8.70;99.90;;;;;;5064846;28;20290;-90
2022/04/15 04:30:43;;;;;;;4.10;1.47;;;8.70;99.90;;;;;;5065357;28;20225;-90
2022/04/15 04:33:08;;;;;;;3.40;1.43;;;8.70;99.90;;;;;;5080666;28;20224;-89
2022/04/15 04:35:37;;;;;;;2.47;1.70;;;8.60;99.90;;;;;;5046066;28;20355;-89
2022/04/15 04:38:05;;;;;;;1.10;1.00;;;8.60;99.90;;;;;;5063150;28;20212;-90
2022/04/15 04:40:31;;;;;;;2.33;1.87;;;8.60;99.90;;;;;;5062690;28;20217;-90
2022/04/15 04:42:57;;;;;;;2.17;1.80;;;8.50;99.90;;;;;;5078842;28;21120;-88
2022/04/15 04:45:23;;;;;;;1.87;1.77;;;8.60;99.90;;;;;;5046633;28;20320;-90
2022/04/15 04:47:49;;;;;;;3.50;1.60;;;8.50;99.90;;;;;;5048143;28;20208;-88
2022/04/15 04:50:15;;;;;;;5.80;2.13;;;8.40;99.90;;;;;;5048139;28;20197;-89
2022/04/15 04:52:41;;;;;;;2.20;2.10;;;8.40;99.90;;;;;;5039865;28;20181;-89
2022/04/15 04:55:08;;;;;;;2.17;1.50;;;8.40;99.90;;;;;;5064390;28;20240;-90
2022/04/15 04:57:34;;;;;;;1.60;1.50;;;8.40;99.90;;;;;;5064705;28;20225;-90
2022/04/15 04:59:59;;;;;;;1.90;1.73;;;8.40;99.90;;;;;;5064574;28;20670;-90
2022/04/15 05:02:25;;;;;;;2.17;1.90;;;8.40;99.90;;;;;;5047824;28;20187;-89
2022/04/15 05:04:51;;;;;;;0.93;0.93;;;8.40;99.90;;;;;;5065084;28;20379;-91
2022/04/15 05:07:17;;;;;;;1.43;1.33;;;8.40;99.90;;;;;;5064868;28;20220;-90
2022/04/15 05:09:43;;;;;;;1.40;1.03;;;8.40;99.90;;;;;;5064710;28;20666;-90
2022/04/15 05:12:12;;;;;;;1.77;1.60;;;8.50;99.90;;;;;;5064291;28;20974;-91
2022/04/15 05:14:38;;;;;;;1.20;1.10;;;8.50;99.90;;;;;;5047696;28;20326;-89
2022/04/15 05:17:05;;;;;;;2.73;2.00;;;8.60;99.90;;;;;;5048536;28;20255;-90
2022/04/15 05:19:32;;;;;;;1.43;1.27;;;8.60;99.90;;;;;;5064126;28;20217;-91
2022/04/15 05:21:57;;;;;;;1.47;1.37;;;8.60;99.90;;;;;;5065906;28;20217;-90
2022/04/15 05:24:23;;;;;;;1.30;0.80;;;8.60;99.90;;;;;;5066738;28;20709;-89
2022/04/15 05:26:49;;;;;;;0.73;0.73;;;8.60;99.90;;;;;;5051352;28;20209;-89
2022/04/15 05:29:15;;;;;;;1.53;1.33;;;8.70;99.90;;;;;;5084028;28;20266;-91
2022/04/15 05:31:42;;;;;;;0.77;0.73;;;8.70;99.90;;;;;;5069270;28;20936;-91
2022/04/15 05:34:08;;;;;;;2.10;1.47;;;8.80;99.90;;;;;;5067055;28;20232;-86
2022/04/15 05:36:34;;;;;;;1.07;0.97;;;8.80;99.90;;;;;;5067288;28;20221;-91
2022/04/15 05:39:00;;;;;;;1.70;1.57;;;8.90;99.90;;;;;;5050993;28;20225;-92
2022/04/15 05:41:26;;;;;;;1.40;1.30;;;9.00;99.90;;;;;;5067163;28;20193;-91
2022/04/15 05:43:52;;;;;;;1.37;1.27;;;8.90;99.90;;;;;;5061501;28;20505;-91
2022/04/15 05:46:19;;;;;;;2.33;0.97;;;8.80;99.90;;;;;;5067618;28;20673;-91
2022/04/15 05:48:45;;;;;;;0.80;0.80;;;8.80;99.90;;;;;;5069013;28;20333;-91
2022/04/15 05:51:11;;;;;;;1.80;0.90;;;8.70;99.90;;;;;;5068113;28;20221;-90
2022/04/15 05:53:37;;;;;;;0.67;0.67;;;8.60;99.90;;;;;;5067713;28;20278;-92
2022/04/15 05:56:03;;;;;;;1.07;0.80;;;8.60;99.90;;;;;;5067729;28;20201;-91
2022/04/15 05:58:29;;;;;;;1.63;0.93;;;8.50;99.90;;;;;;5068100;28;20220;-91
2022/04/15 06:00:55;;;;;;;0.77;0.77;;;8.50;99.90;;;;;;5067719;28;20213;-90
2022/04/15 06:03:21;;;;;;;1.20;1.10;;;8.60;99.90;;;;;;5050734;28;20225;-90
2022/04/15 06:05:47;;;;;;;1.30;1.20;;;8.50;99.90;;;;;;5051053;28;20696;-91
2022/04/15 06:08:14;;;;;;;1.50;0.90;;;8.60;99.90;;;;;;5059662;28;20186;-92
2022/04/15 06:10:40;;;;;;;1.50;1.00;;;8.50;99.90;;;;;;5068019;28;20322;-91
2022/04/15 06:13:19;;;;;;;2.60;1.70;;;8.40;99.90;;;;;;5067412;28;20227;-90
2022/04/15 06:15:53;;;;;;;2.60;2.40;;;8.50;99.90;;;;;;5082051;28;20239;-91
2022/04/15 06:18:20;;;;;;;2.60;1.97;;;8.50;99.90;;;;;;5066551;28;20225;-92
2022/04/15 06:20:47;;;;;;;4.03;2.73;;;8.50;99.90;;;;;;5084595;28;20217;-91
2022/04/15 06:23:14;;;;;;;2.43;1.90;;;8.50;99.90;;;;;;5068262;28;20193;-91
2022/04/15 06:25:40;;;;;;;5.63;3.67;;;8.50;99.90;;;;;;5050913;28;20229;-89
2022/04/15 06:28:06;;;;;;;4.60;2.70;;;8.60;99.90;;;;;;5066946;28;20221;-88
2022/04/15 06:30:32;;;;;;;2.53;2.00;;;8.60;99.90;;;;;;5083013;28;20219;-87
2022/04/15 06:32:58;;;;;;;4.70;1.80;;;8.60;99.90;;;;;;5082733;28;20544;-85
2022/04/15 06:35:24;;;;;;;2.80;2.60;;;8.70;99.90;;;;;;5081595;28;20198;-85
2022/04/15 06:37:49;;;;;;;3.67;2.40;;;8.70;99.90;;;;;;5048635;28;20292;-87
2022/04/15 06:40:15;;;;;;;3.80;3.07;;;8.70;99.90;;;;;;5065896;28;20217;-91
2022/04/15 06:42:41;;;;;;;4.37;3.10;;;8.80;99.90;;;;;;5041461;28;20213;-92
2022/04/15 06:45:07;;;;;;;8.27;3.30;;;8.80;99.90;;;;;;5082855;28;20241;-87
2022/04/15 06:47:33;;;;;;;3.93;3.00;;;8.80;99.90;;;;;;5082177;28;20200;-88
2022/04/15 06:49:58;;;;;;;4.83;4.17;;;8.80;99.90;;;;;;5033126;28;20612;-91
2022/04/15 06:52:24;;;;;;;6.00;3.47;;;8.90;99.90;;;;;;5067693;28;20286;-90
2022/04/15 06:54:50;;;;;;;5.20;3.73;;;8.90;99.90;;;;;;5050433;28;20231;-91
2022/04/15 06:57:16;;;;;;;3.87;3.50;;;8.90;99.90;;;;;;5083708;28;20213;-91
2022/04/15 06:59:42;;;;;;;3.37;3.10;;;8.90;99.90;;;;;;5050218;28;20286;-89
2022/04/15 07:02:07;;;;;;;4.60;3.03;;;8.90;99.90;;;;;;5084100;28;20347;-91
2022/04/15 07:04:34;;;;;;;5.07;3.13;;;8.90;99.90;;;;;;5050630;28;20225;-92
2022/04/15 07:07:00;;;;;;;4.73;3.27;;;9.00;99.90;;;;;;5049574;28;20229;-92
2022/04/15 07:09:26;;;;;;;14.27;3.47;;;9.00;99.90;;;;;;5067873;28;20220;-92
2022/04/15 07:11:53;;;;;;;5.30;3.60;;;9.00;99.90;;;;;;5049757;28;20258;-92
2022/04/15 07:14:19;;;;;;;5.33;3.13;;;9.10;99.90;;;;;;5049084;28;20225;-92
2022/04/15 07:16:45;;;;;;;7.57;3.37;;;9.10;99.90;;;;;;5050421;28;20193;-91
2022/04/15 07:19:11;;;;;;;6.73;4.23;;;9.10;99.90;;;;;;5082982;28;20221;-91
2022/04/15 07:21:40;;;;;;;4.13;2.63;;;9.20;99.90;;;;;;5049568;28;20270;-92
2022/04/15 07:24:06;;;;;;;5.17;3.27;;;9.10;99.90;;;;;;5082515;28;20237;-91
2022/04/15 07:26:33;;;;;;;5.27;3.63;;;9.10;99.90;;;;;;5049497;28;20219;-91
2022/04/15 07:28:59;;;;;;;6.57;3.80;;;9.20;99.90;;;;;;5066722;28;20288;-92
2022/04/15 07:31:25;;;;;;;3.17;2.87;;;9.50;99.90;;;;;;5082991;28;20210;-91
2022/04/15 07:33:51;;;;;;;2.83;2.17;;;9.60;99.90;;;;;;5065262;28;20709;-92
2022/04/15 07:39:14;;;;;;;6.17;4.10;;;10.50;99.90;;;;;;5066149;28;20244;-91
2022/04/15 07:41:40;;;;;;;4.17;2.87;;;12.90;99.90;;;;;;5066033;28;20241;-91
2022/04/15 07:44:08;;;;;;;6.13;2.30;;;14.60;99.90;;;;;;5065890;28;20209;-91
2022/04/15 07:46:35;;;;;;;6.70;3.23;;;14.70;99.90;;;;;;5074291;28;20225;-91
2022/04/15 07:49:01;;;;;;;5.30;2.30;;;14.50;99.90;;;;;;5048537;28;20303;-92
2022/04/15 07:51:27;;;;;;;3.87;3.40;;;12.90;99.90;;;;;;5082238;28;20374;-92
2022/04/15 07:53:53;;;;;;;2.40;2.07;;;13.40;99.90;;;;;;5082581;28;20303;-92
2022/04/15 07:56:19;;;;;;;7.10;3.23;;;15.20;99.90;;;;;;5063438;28;20193;-92
2022/04/15 07:58:45;;;;;;;4.00;2.30;;;17.10;99.90;;;;;;5063995;28;20714;-91
2022/04/15 08:01:11;;;;;;;4.10;2.23;;;17.60;99.90;;;;;;5063579;28;20220;-92
2022/04/15 08:03:37;;;;;;;3.37;2.70;;;15.50;99.90;;;;;;5064336;28;21071;-92
2022/04/15 08:06:03;;;;;;;6.30;2.23;;;15.00;99.90;;;;;;5064326;28;20217;-92
2022/04/15 08:08:29;;;;;;;6.30;2.33;;;15.60;99.90;;;;;;5064332;28;20174;-93
2022/04/15 08:10:56;;;;;;;3.37;2.57;;;15.90;99.90;;;;;;5066596;28;20189;-92
2022/04/15 08:13:23;;;;;;;2.60;2.03;;;16.20;99.90;;;;;;5066721;28;20237;-90
2022/04/15 08:15:56;;;;;;;4.53;2.50;;;16.70;99.90;;;;;;5065300;28;20233;-92
2022/04/15 08:18:23;;;;;;;2.90;2.37;;;17.50;99.90;;;;;;5040390;28;20273;-84
2022/04/15 08:20:50;;;;;;;2.90;2.00;;;15.10;99.90;;;;;;5047890;28;20688;-84
2022/04/15 08:23:17;;;;;;;7.67;3.33;;;13.10;99.90;;;;;;5046979;28;20700;-86
2022/04/15 08:25:44;;;;;;;2.97;2.37;;;12.70;99.90;;;;;;5065164;28;20186;-84
2022/04/15 08:28:11;;;;;;;9.67;3.30;;;12.50;99.90;;;;;;5063935;28;20232;-86
2022/04/15 08:30:37;;;;;;;10.47;2.47;;;12.30;99.90;;;;;;5064524;28;20256;-86
2022/04/15 08:33:07;;;;;;;4.17;2.27;;;11.90;99.90;;;;;;5046471;28;20217;-88
2022/04/15 08:35:34;;;;;;;4.50;2.50;;;11.40;99.90;;;;;;5047791;28;20185;-85
2022/04/15 08:38:01;;;;;;;5.67;2.00;;;11.50;99.90;;;;;;5057598;28;20197;-87
2022/04/15 08:40:27;;;;;;;5.73;2.53;;;12.10;99.90;;;;;;5065119;28;20221;-84
2022/04/15 08:42:53;;;;;;;3.97;2.37;;;12.40;99.90;;;;;;5064192;28;20244;-86
2022/04/15 08:45:25;;;;;;;2.40;2.13;;;11.90;99.90;;;;;;5063748;28;20298;-85
2022/04/15 08:48:05;;;;;;;1.70;1.53;;;12.60;99.90;;;;;;5064044;28;20240;-87
2022/04/15 08:50:31;;;;;;;3.40;1.87;;;12.40;99.90;;;;;;5047579;28;20169;-86
2022/04/15 08:52:58;;;;;;;6.27;2.00;;;13.30;99.90;;;;;;5064455;28;20695;-85
2022/04/15 08:55:27;;;;;;;2.37;2.17;;;13.60;99.90;;;;;;5080446;28;20229;-88
2022/04/15 08:57:53;;;;;;;3.80;2.07;;;14.40;99.90;;;;;;5047290;28;20220;-87
2022/04/15 09:00:20;;;;;;;4.33;2.63;;;13.90;99.90;;;;;;5085256;28;20228;-84
2022/04/15 09:02:47;;;;;;;5.10;2.53;;;12.20;99.90;;;;;;5069560;28;20221;-86
2022/04/15 09:05:17;;;;;;;6.37;2.70;;;11.90;99.90;;;;;;5068548;28;20567;-86
2022/04/15 09:07:45;;;;;;;2.83;1.90;;;12.80;99.90;;;;;;5050885;28;20256;-89
2022/04/15 09:10:12;;;;;;;2.83;2.40;;;12.50;99.90;;;;;;5084075;28;21103;-83
2022/04/15 09:12:39;;;;;;;4.87;2.67;;;13.80;99.90;;;;;;5050998;28;20916;-83
2022/04/15 09:15:06;;;;;;;2.40;2.20;;;13.80;99.90;;;;;;5067613;28;20225;-85
2022/04/15 09:17:35;;;;;;;4.17;2.83;;;15.20;99.90;;;;;;5066607;28;20186;-86
2022/04/15 09:20:02;;;;;;;8.00;2.20;;;16.00;99.90;;;;;;5068053;28;20189;-87
2022/04/15 09:22:28;;;;;;;3.37;2.27;;;16.00;99.90;;;;;;5050975;28;20217;-84
2022/04/15 09:24:54;;;;;;;3.33;2.30;;;16.20;99.90;;;;;;5067640;28;20314;-83
2022/04/15 09:27:20;;;;;;;2.97;2.20;;;14.20;99.90;;;;;;5068746;28;20224;-82
2022/04/15 09:29:46;;;;;;;6.50;3.00;;;14.10;99.90;;;;;;5084342;28;20216;-88
2022/04/15 09:32:14;;;;;;;4.93;2.17;;;16.10;99.90;;;;;;5069061;28;20657;-88
2022/04/15 09:34:57;;;;;;;6.27;2.50;;;16.50;99.90;;;;;;5069757;28;20233;-89
2022/04/15 09:37:29;;;;;;;2.83;2.23;;;15.10;99.90;;;;;;5051257;28;20213;-89
2022/04/15 09:40:09;;;;;;;3.30;2.00;;;15.60;99.90;;;;;;5067972;28;20225;-90
2022/04/15 09:42:36;;;;;;;3.23;2.60;;;16.80;99.90;;;;;;5049551;28;20212;-86
2022/04/15 09:45:14;;;;;;;2.57;1.87;;;15.10;99.90;;;;;;5049223;28;20248;-86
2022/04/15 09:47:40;;;;;;;5.70;2.30;;;15.60;99.90;;;;;;5048646;28;20304;-86
2022/04/15 09:50:07;;;;;;;2.90;2.70;;;16.60;99.90;;;;;;5067508;28;20256;-88
2022/04/15 09:52:34;;;;;;;2.70;2.50;;;17.00;99.90;;;;;;5068702;28;20648;-86
2022/04/15 09:55:02;;;;;;;2.43;1.97;;;16.50;99.90;;;;;;5065853;28;20933;-86
2022/04/15 09:57:33;;;;;;;2.47;2.20;;;17.20;99.90;;;;;;5049508;28;20240;-87
2022/04/15 10:00:05;;;;;;;3.27;1.97;;;17.20;99.90;;;;;;5067578;28;20422;-84
2022/04/15 10:02:35;;;;;;;3.77;2.20;;;16.90;99.90;;;;;;5050151;28;20186;-86
2022/04/15 10:05:02;;;;;;;5.20;3.13;;;15.00;99.90;;;;;;5068273;28;20288;-86
2022/04/15 10:07:30;;;;;;;5.77;2.30;;;15.30;99.90;;;;;;5068378;28;21013;-88
2022/04/15 10:09:57;;;;;;;2.60;1.73;;;15.70;99.90;;;;;;5082312;28;20225;-85
2022/04/15 10:12:24;;;;;;;3.03;2.57;;;16.30;99.90;;;;;;5083011;28;20235;-85
2022/04/15 10:14:51;;;;;;;2.53;2.30;;;15.60;99.90;;;;;;5049342;28;20237;-86
2022/04/15 10:17:20;;;;;;;3.20;2.07;;;15.30;99.90;;;;;;5066972;28;20304;-85
2022/04/15 10:19:46;;;;;;;1.93;1.53;;;16.20;99.90;;;;;;5081759;28;20331;-87
2022/04/15 10:22:12;;;;;;;4.07;2.53;;;16.40;99.90;;;;;;5066796;28;20224;-86
2022/04/15 10:24:38;;;;;;;2.63;2.27;;;16.70;99.90;;;;;;5048505;28;21012;-85
2022/04/15 10:27:04;;;;;;;2.63;2.33;;;16.20;99.90;;;;;;5049559;28;20228;-86
2022/04/15 10:29:30;;;;;;;5.20;1.50;;;16.20;99.90;;;;;;5066430;28;20664;-86
2022/04/15 10:31:56;;;;;;;4.30;2.20;;;16.30;99.90;;;;;;5083519;28;20250;-86
2022/04/15 10:34:22;;;;;;;4.00;1.40;;;16.60;99.90;;;;;;5067484;28;20233;-86
2022/04/15 10:36:54;;;;;;;3.10;1.87;;;16.50;99.90;;;;;;5082696;28;20308;-84
2022/04/15 10:39:22;;;;;;;3.23;2.30;;;17.00;99.90;;;;;;5065928;28;20221;-85
2022/04/15 10:41:53;;;;;;;2.73;1.93;;;17.80;99.90;;;;;;5048461;28;20237;-88
2022/04/15 10:44:29;;;;;;;2.67;2.00;;;17.70;99.90;;;;;;5066064;28;20213;-86
2022/04/15 10:47:10;;;;;;;3.97;2.00;;;17.20;99.90;;;;;;5059565;28;20181;-87
2022/04/15 10:49:52;;;;;;;5.80;2.37;;;17.20;99.90;;;;;;5067338;28;20234;-85
2022/04/15 10:52:21;;;;;;;4.27;2.13;;;16.10;99.90;;;;;;5048335;28;20225;-84
2022/04/15 10:54:51;;;;;;;3.37;2.03;;;15.10;99.90;;;;;;5082705;28;20256;-84
2022/04/15 10:57:18;;;;;;;9.27;2.33;;;15.50;99.90;;;;;;5048224;28;20648;-86
2022/04/15 11:02:42;;;;;;;3.83;2.07;;;15.20;99.90;;;;;;5067078;28;20213;-85
2022/04/15 11:05:11;;;;;;;3.33;3.00;;;15.60;99.90;;;;;;5067232;28;20209;-86
2022/04/15 11:07:48;;;;;;;3.20;2.30;;;14.90;99.90;;;;;;5067087;28;20300;-87
2022/04/15 11:10:42;;;;;;;4.43;1.80;;;15.20;99.90;;;;;;5066466;28;20225;-84
2022/04/15 11:13:27;;;;;;;2.90;2.50;;;14.70;99.90;;;;;;5058321;28;20225;-88
2022/04/15 11:16:16;;;;;;;5.90;2.40;;;15.40;99.90;;;;;;5064061;28;20245;-85
2022/04/15 11:18:51;;;;;;;4.73;2.20;;;16.10;99.90;;;;;;5048581;28;20225;-85
2022/04/15 11:21:36;;;;;;;4.07;2.73;;;15.30;99.90;;;;;;5056813;28;20685;-85
2022/04/15 11:24:05;;;;;;;2.87;2.30;;;14.00;99.90;;;;;;5082343;28;20232;-86
2022/04/15 11:26:32;;;;;;;2.50;2.30;;;13.80;99.90;;;;;;5047867;28;20184;-85
2022/04/15 11:29:00;;;;;;;5.93;2.87;;;14.50;99.90;;;;;;5065798;28;20185;-85
2022/04/15 11:31:31;;;;;;;2.90;2.20;;;14.50;99.90;;;;;;5080998;28;20235;-84
2022/04/15 11:34:07;;;;;;;1.70;1.60;;;14.40;99.90;;;;;;5065396;28;20701;-85
2022/04/15 11:36:37;;;;;;;3.30;2.17;;;14.20;99.90;;;;;;5065465;28;20252;-84
2022/04/15 11:39:05;;;;;;;5.30;2.53;;;14.30;99.90;;;;;;5082144;28;20221;-83
2022/04/15 11:41:31;;;;;;;4.43;2.33;;;13.60;99.90;;;;;;5065546;28;20189;-85
2022/04/15 11:43:59;;;;;;;7.40;3.00;;;13.10;99.90;;;;;;5082489;28;20317;-84
2022/04/15 11:46:27;;;;;;;4.63;2.07;;;13.30;99.90;;;;;;5065998;28;20232;-84
2022/04/15 11:48:55;;;;;;;2.80;2.00;;;14.00;99.90;;;;;;5065940;28;20224;-83
2022/04/15 11:51:23;;;;;;;2.97;2.43;;;13.80;99.90;;;;;;5047681;28;20228;-87
2022/04/15 11:53:50;;;;;;;6.00;3.13;;;13.80;99.90;;;;;;5047135;28;20221;-83
2022/04/15 11:56:16;;;;;;;2.53;2.33;;;13.50;99.90;;;;;;5063468;28;20189;-83
2022/04/15 11:58:45;;;;;;;4.37;2.30;;;13.20;99.90;;;;;;5082106;28;20189;-85
2022/04/15 12:01:10;;;;;;;3.20;1.80;;;13.40;99.90;;;;;;5047747;28;20225;-86
2022/04/15 12:03:43;;;;;;;4.60;3.07;;;14.30;99.90;;;;;;5064959;28;20232;-83
2022/04/15 12:06:09;;;;;;;4.10;2.27;;;14.70;99.90;;;;;;5047113;28;20225;-84
2022/04/15 12:08:35;;;;;;;3.37;2.57;;;14.20;99.90;;;;;;5063008;28;20302;-84
2022/04/15 12:11:02;;;;;;;3.93;2.27;;;13.80;99.90;;;;;;5062444;28;20711;-86
2022/04/15 12:13:28;;;;;;;4.40;2.33;;;13.60;99.90;;;;;;5037992;28;20213;-88
2022/04/15 12:15:54;;;;;;;3.60;2.60;;;13.60;99.90;;;;;;5081553;28;20736;-86
2022/04/15 12:18:20;;;;;;;3.93;2.30;;;13.10;99.90;;;;;;5064049;28;20225;-87
2022/04/15 12:20:46;;;;;;;3.27;2.73;;;13.10;99.90;;;;;;5081191;28;20745;-84
2022/04/15 12:23:14;;;;;;;5.47;2.00;;;13.60;99.90;;;;;;5065669;28;20200;-85
2022/04/15 12:31:31;;;;;;;6.77;2.43;;;13.20;99.90;;;;;;5065277;28;20224;-86
2022/04/15 12:34:01;;;;;;;4.70;3.07;;;13.50;99.90;;;;;;5065063;28;20227;-86
2022/04/15 12:36:44;;;;;;;3.33;2.67;;;13.10;99.90;;;;;;5081244;28;20291;-87
2022/04/15 12:39:11;;;;;;;2.87;1.90;;;13.40;99.90;;;;;;5065810;28;20274;-85
2022/04/15 12:41:42;;;;;;;4.93;2.77;;;13.90;99.90;;;;;;5046703;28;20252;-84
2022/04/15 12:44:31;;;;;;;3.20;2.50;;;13.80;99.90;;;;;;5047289;28;20205;-85
2022/04/15 12:47:00;;;;;;;2.50;2.30;;;13.20;99.90;;;;;;5041228;28;20278;-85
2022/04/15 12:49:33;;;;;;;3.80;2.67;;;13.60;99.90;;;;;;5080338;28;20225;-84
2022/04/15 12:52:15;;;;;;;7.67;3.63;;;14.20;99.90;;;;;;5065259;28;20216;-87
2022/04/15 12:55:01;;;;;;;5.20;3.60;;;14.30;99.90;;;;;;5047160;28;20245;-89
2022/04/15 12:57:32;;;;;;;3.47;2.43;;;14.10;99.90;;;;;;5046502;28;21300;-86
2022/04/15 12:59:58;;;;;;;1.80;1.67;;;13.70;99.90;;;;;;5065217;28;20304;-84
2022/04/15 13:02:24;;;;;;;2.93;2.30;;;13.40;99.90;;;;;;5038536;28;21006;-84
2022/04/15 13:04:54;;;;;;;3.83;1.93;;;13.40;99.90;;;;;;5065553;28;20205;-85
2022/04/15 13:07:23;;;;;;;3.70;2.57;;;13.10;99.90;;;;;;5063603;28;20225;-85